sensor_id;sensor_type;location;lat;lon;timestamp;P1;durP1;ratioP1;P2;durP2;ratioP2
3795;SDS011;1913;50.660;7.834;2022-08-19T00:01:20;47.63;;;35.20;;
3795;SDS011;1913;50.660;7.834;2022-08-19T00:03:46;50.90;;;35.20;;
3795;SDS011;1913;50.660;7.834;2022-08-19T00:06:12;52.33;;;35.60;;
3795;SDS011;1913;50.660;7.834;2022-08-19T00:08:38;46.07;;;34.20;;
3795;SDS011;1913;50.660;7.834;2022-08-19T00:11:04;58.33;;;36.80;;
3795;SDS011;1913;50.660;7.834;2022-08-19T00:13:29;50.93;;;35.63;;
3795;SDS011;1913;50.660;7.834;2022-08-19T00:15:55;52.17;;;35.33;;
3795;SDS011;1913;50.660;7.834;2022-08-19T00:18:21;52.40;;;35.50;;
3795;SDS011;1913;50.660;7.834;2022-08-19T00:20:46;49.03;;;34.27;;
3795;SDS011;1913;50.660;7.834;2022-08-19T00:23:12;45.47;;;33.17;;
3795;SDS011;1913;50.660;7.834;2022-08-19T00:25:37;46.33;;;33.07;;
3795;SDS011;1913;50.660;7.834;2022-08-19T00:28:03;45.20;;;33.57;;
3795;SDS011;1913;50.660;7.834;2022-08-19T00:30:29;46.93;;;33.10;;
3795;SDS011;1913;50.660;7.834;2022-08-19T00:32:55;49.10;;;33.47;;
3795;SDS011;1913;50.660;7.834;2022-08-19T00:35:21;48.63;;;35.07;;
3795;SDS011;1913;50.660;7.834;2022-08-19T00:37:47;54.17;;;35.27;;
3795;SDS011;1913;50.660;7.834;2022-08-19T00:40:14;52.37;;;37.03;;
3795;SDS011;1913;50.660;7.834;2022-08-19T00:42:40;46.97;;;34.47;;
3795;SDS011;1913;50.660;7.834;2022-08-19T00:45:18;59.17;;;36.80;;
3795;SDS011;1913;50.660;7.834;2022-08-19T00:47:45;53.43;;;36.00;;
3795;SDS011;1913;50.660;7.834;2022-08-19T00:50:12;49.60;;;36.60;;
3795;SDS011;1913;50.660;7.834;2022-08-19T00:52:43;52.33;;;38.60;;
3795;SDS011;1913;50.660;7.834;2022-08-19T00:55:17;56.57;;;36.40;;
3795;SDS011;1913;50.660;7.834;2022-08-19T00:57:47;55.07;;;37.17;;
3795;SDS011;1913;50.660;7.834;2022-08-19T01:00:19;56.37;;;39.87;;
3795;SDS011;1913;50.660;7.834;2022-08-19T01:02:46;46.70;;;34.07;;
3795;SDS011;1913;50.660;7.834;2022-08-19T01:05:16;46.90;;;35.10;;
3795;SDS011;1913;50.660;7.834;2022-08-19T01:07:45;52.90;;;36.47;;
3795;SDS011;1913;50.660;7.834;2022-08-19T01:10:14;51.90;;;36.33;;
3795;SDS011;1913;50.660;7.834;2022-08-19T01:12:43;55.10;;;38.17;;
3795;SDS011;1913;50.660;7.834;2022-08-19T01:15:11;52.43;;;38.17;;
3795;SDS011;1913;50.660;7.834;2022-08-19T01:17:39;51.37;;;35.53;;
3795;SDS011;1913;50.660;7.834;2022-08-19T01:20:09;55.00;;;37.20;;
3795;SDS011;1913;50.660;7.834;2022-08-19T01:22:40;51.40;;;35.70;;
3795;SDS011;1913;50.660;7.834;2022-08-19T01:25:11;52.50;;;38.00;;
3795;SDS011;1913;50.660;7.834;2022-08-19T01:27:42;60.47;;;38.50;;
3795;SDS011;1913;50.660;7.834;2022-08-19T01:30:13;53.00;;;38.10;;
3795;SDS011;1913;50.660;7.834;2022-08-19T01:32:42;57.63;;;38.13;;
3795;SDS011;1913;50.660;7.834;2022-08-19T01:35:08;55.40;;;38.00;;
3795;SDS011;1913;50.660;7.834;2022-08-19T01:37:53;57.53;;;37.60;;
3795;SDS011;1913;50.660;7.834;2022-08-19T01:40:21;52.70;;;36.97;;
3795;SDS011;1913;50.660;7.834;2022-08-19T01:42:48;55.63;;;39.07;;
3795;SDS011;1913;50.660;7.834;2022-08-19T01:45:15;58.70;;;39.00;;
3795;SDS011;1913;50.660;7.834;2022-08-19T01:47:41;54.77;;;38.17;;
3795;SDS011;1913;50.660;7.834;2022-08-19T01:50:07;58.20;;;38.30;;
3795;SDS011;1913;50.660;7.834;2022-08-19T01:52:38;50.03;;;35.93;;
3795;SDS011;1913;50.660;7.834;2022-08-19T01:55:06;54.43;;;37.97;;
3795;SDS011;1913;50.660;7.834;2022-08-19T01:57:33;52.87;;;36.27;;
3795;SDS011;1913;50.660;7.834;2022-08-19T01:59:59;55.27;;;38.60;;
3795;SDS011;1913;50.660;7.834;2022-08-19T02:02:25;51.47;;;37.40;;
3795;SDS011;1913;50.660;7.834;2022-08-19T02:04:50;63.87;;;40.10;;
3795;SDS011;1913;50.660;7.834;2022-08-19T02:07:18;56.83;;;37.90;;
3795;SDS011;1913;50.660;7.834;2022-08-19T02:09:47;51.90;;;36.47;;
3795;SDS011;1913;50.660;7.834;2022-08-19T02:12:13;53.33;;;34.50;;
3795;SDS011;1913;50.660;7.834;2022-08-19T02:14:39;52.77;;;35.73;;
3795;SDS011;1913;50.660;7.834;2022-08-19T02:17:05;49.60;;;33.97;;
3795;SDS011;1913;50.660;7.834;2022-08-19T02:19:30;48.37;;;35.43;;
3795;SDS011;1913;50.660;7.834;2022-08-19T02:21:57;54.80;;;36.43;;
3795;SDS011;1913;50.660;7.834;2022-08-19T02:24:23;56.73;;;36.33;;
3795;SDS011;1913;50.660;7.834;2022-08-19T02:26:49;52.77;;;35.23;;
3795;SDS011;1913;50.660;7.834;2022-08-19T02:29:14;53.73;;;37.63;;
3795;SDS011;1913;50.660;7.834;2022-08-19T02:31:39;56.47;;;36.57;;
3795;SDS011;1913;50.660;7.834;2022-08-19T02:34:05;54.67;;;35.73;;
3795;SDS011;1913;50.660;7.834;2022-08-19T02:36:31;58.20;;;36.53;;
3795;SDS011;1913;50.660;7.834;2022-08-19T02:38:56;56.63;;;39.03;;
3795;SDS011;1913;50.660;7.834;2022-08-19T02:41:24;49.70;;;33.97;;
3795;SDS011;1913;50.660;7.834;2022-08-19T02:43:51;47.30;;;32.17;;
3795;SDS011;1913;50.660;7.834;2022-08-19T02:48:51;52.07;;;35.27;;
3795;SDS011;1913;50.660;7.834;2022-08-19T02:51:18;57.00;;;35.20;;
3795;SDS011;1913;50.660;7.834;2022-08-19T02:53:46;51.70;;;35.97;;
3795;SDS011;1913;50.660;7.834;2022-08-19T02:56:11;62.57;;;38.93;;
3795;SDS011;1913;50.660;7.834;2022-08-19T02:58:37;65.13;;;39.60;;
3795;SDS011;1913;50.660;7.834;2022-08-19T03:01:03;62.77;;;40.00;;
3795;SDS011;1913;50.660;7.834;2022-08-19T03:03:28;60.30;;;37.43;;
3795;SDS011;1913;50.660;7.834;2022-08-19T03:06:11;59.60;;;37.40;;
3795;SDS011;1913;50.660;7.834;2022-08-19T03:08:39;61.67;;;37.13;;
3795;SDS011;1913;50.660;7.834;2022-08-19T03:11:06;64.63;;;39.60;;
3795;SDS011;1913;50.660;7.834;2022-08-19T03:13:37;55.47;;;36.13;;
3795;SDS011;1913;50.660;7.834;2022-08-19T03:16:04;60.57;;;37.77;;
3795;SDS011;1913;50.660;7.834;2022-08-19T03:18:30;70.07;;;40.37;;
3795;SDS011;1913;50.660;7.834;2022-08-19T03:20:55;59.80;;;36.20;;
3795;SDS011;1913;50.660;7.834;2022-08-19T03:23:21;53.80;;;35.90;;
3795;SDS011;1913;50.660;7.834;2022-08-19T03:25:48;68.70;;;38.83;;
3795;SDS011;1913;50.660;7.834;2022-08-19T03:28:15;71.37;;;38.23;;
3795;SDS011;1913;50.660;7.834;2022-08-19T03:30:41;59.80;;;37.57;;
3795;SDS011;1913;50.660;7.834;2022-08-19T03:33:19;59.63;;;36.10;;
3795;SDS011;1913;50.660;7.834;2022-08-19T03:35:45;67.73;;;41.10;;
3795;SDS011;1913;50.660;7.834;2022-08-19T03:38:10;76.00;;;42.87;;
3795;SDS011;1913;50.660;7.834;2022-08-19T03:40:36;69.70;;;41.30;;
3795;SDS011;1913;50.660;7.834;2022-08-19T03:43:01;71.97;;;43.60;;
3795;SDS011;1913;50.660;7.834;2022-08-19T03:45:27;80.43;;;46.57;;
3795;SDS011;1913;50.660;7.834;2022-08-19T03:47:53;80.40;;;44.43;;
3795;SDS011;1913;50.660;7.834;2022-08-19T03:50:18;89.77;;;46.80;;
3795;SDS011;1913;50.660;7.834;2022-08-19T03:52:48;78.07;;;43.03;;
3795;SDS011;1913;50.660;7.834;2022-08-19T03:55:17;60.33;;;36.53;;
3795;SDS011;1913;50.660;7.834;2022-08-19T03:57:43;63.17;;;37.37;;
3795;SDS011;1913;50.660;7.834;2022-08-19T04:00:10;79.93;;;40.80;;
3795;SDS011;1913;50.660;7.834;2022-08-19T04:02:36;66.83;;;38.63;;
3795;SDS011;1913;50.660;7.834;2022-08-19T04:05:01;78.10;;;43.70;;
3795;SDS011;1913;50.660;7.834;2022-08-19T04:07:27;81.23;;;44.80;;
3795;SDS011;1913;50.660;7.834;2022-08-19T04:09:52;84.40;;;45.93;;
3795;SDS011;1913;50.660;7.834;2022-08-19T04:12:18;88.37;;;47.40;;
3795;SDS011;1913;50.660;7.834;2022-08-19T04:14:45;72.23;;;41.43;;
3795;SDS011;1913;50.660;7.834;2022-08-19T04:17:11;65.10;;;38.70;;
3795;SDS011;1913;50.660;7.834;2022-08-19T04:19:38;79.00;;;45.10;;
3795;SDS011;1913;50.660;7.834;2022-08-19T04:22:05;70.97;;;42.03;;
3795;SDS011;1913;50.660;7.834;2022-08-19T04:24:31;78.73;;;40.90;;
3795;SDS011;1913;50.660;7.834;2022-08-19T04:26:59;84.43;;;46.67;;
3795;SDS011;1913;50.660;7.834;2022-08-19T04:29:27;67.93;;;38.20;;
3795;SDS011;1913;50.660;7.834;2022-08-19T04:31:55;67.67;;;37.77;;
3795;SDS011;1913;50.660;7.834;2022-08-19T04:34:22;76.20;;;44.10;;
3795;SDS011;1913;50.660;7.834;2022-08-19T04:36:49;70.77;;;42.90;;
3795;SDS011;1913;50.660;7.834;2022-08-19T04:39:17;87.87;;;47.73;;
3795;SDS011;1913;50.660;7.834;2022-08-19T04:41:45;98.47;;;48.10;;
3795;SDS011;1913;50.660;7.834;2022-08-19T04:44:30;81.00;;;43.37;;
3795;SDS011;1913;50.660;7.834;2022-08-19T04:46:57;86.33;;;46.23;;
3795;SDS011;1913;50.660;7.834;2022-08-19T04:49:23;88.00;;;47.43;;
3795;SDS011;1913;50.660;7.834;2022-08-19T04:51:49;91.23;;;48.30;;
3795;SDS011;1913;50.660;7.834;2022-08-19T04:54:20;100.07;;;48.50;;
3795;SDS011;1913;50.660;7.834;2022-08-19T04:56:48;86.70;;;47.03;;
3795;SDS011;1913;50.660;7.834;2022-08-19T04:59:14;88.50;;;47.43;;
3795;SDS011;1913;50.660;7.834;2022-08-19T05:01:42;78.50;;;43.67;;
3795;SDS011;1913;50.660;7.834;2022-08-19T05:04:08;71.47;;;41.80;;
3795;SDS011;1913;50.660;7.834;2022-08-19T05:06:34;75.27;;;43.40;;
3795;SDS011;1913;50.660;7.834;2022-08-19T05:09:00;84.07;;;44.60;;
3795;SDS011;1913;50.660;7.834;2022-08-19T05:11:28;51.40;;;32.77;;
3795;SDS011;1913;50.660;7.834;2022-08-19T05:13:57;47.53;;;32.30;;
3795;SDS011;1913;50.660;7.834;2022-08-19T05:16:23;48.60;;;32.53;;
3795;SDS011;1913;50.660;7.834;2022-08-19T05:18:50;48.27;;;32.10;;
3795;SDS011;1913;50.660;7.834;2022-08-19T05:21:34;52.00;;;34.50;;
3795;SDS011;1913;50.660;7.834;2022-08-19T05:24:19;54.50;;;34.43;;
3795;SDS011;1913;50.660;7.834;2022-08-19T05:26:47;49.83;;;33.27;;
3795;SDS011;1913;50.660;7.834;2022-08-19T05:29:14;43.43;;;31.13;;
3795;SDS011;1913;50.660;7.834;2022-08-19T05:31:42;45.73;;;30.90;;
3795;SDS011;1913;50.660;7.834;2022-08-19T05:34:08;40.47;;;27.97;;
3795;SDS011;1913;50.660;7.834;2022-08-19T05:36:44;34.57;;;26.50;;
3795;SDS011;1913;50.660;7.834;2022-08-19T05:39:14;51.53;;;34.63;;
3795;SDS011;1913;50.660;7.834;2022-08-19T05:41:45;50.33;;;33.67;;
3795;SDS011;1913;50.660;7.834;2022-08-19T05:44:13;44.90;;;31.73;;
3795;SDS011;1913;50.660;7.834;2022-08-19T05:46:39;46.37;;;32.37;;
3795;SDS011;1913;50.660;7.834;2022-08-19T05:49:05;40.80;;;28.87;;
3795;SDS011;1913;50.660;7.834;2022-08-19T05:51:32;42.17;;;30.57;;
3795;SDS011;1913;50.660;7.834;2022-08-19T05:53:59;38.00;;;28.77;;
3795;SDS011;1913;50.660;7.834;2022-08-19T05:56:25;42.00;;;29.90;;
3795;SDS011;1913;50.660;7.834;2022-08-19T05:58:51;35.87;;;27.60;;
3795;SDS011;1913;50.660;7.834;2022-08-19T06:01:19;38.20;;;28.63;;
3795;SDS011;1913;50.660;7.834;2022-08-19T06:03:45;36.47;;;27.20;;
3795;SDS011;1913;50.660;7.834;2022-08-19T06:06:11;42.93;;;31.70;;
3795;SDS011;1913;50.660;7.834;2022-08-19T06:08:38;36.87;;;28.83;;
3795;SDS011;1913;50.660;7.834;2022-08-19T06:11:14;39.90;;;29.70;;
3795;SDS011;1913;50.660;7.834;2022-08-19T06:13:43;39.90;;;31.37;;
3795;SDS011;1913;50.660;7.834;2022-08-19T06:16:12;39.53;;;29.50;;
3795;SDS011;1913;50.660;7.834;2022-08-19T06:18:44;43.60;;;32.60;;
3795;SDS011;1913;50.660;7.834;2022-08-19T06:21:10;43.17;;;32.57;;
3795;SDS011;1913;50.660;7.834;2022-08-19T06:23:35;40.40;;;30.10;;
3795;SDS011;1913;50.660;7.834;2022-08-19T06:26:01;36.73;;;28.20;;
3795;SDS011;1913;50.660;7.834;2022-08-19T06:28:26;37.77;;;28.73;;
3795;SDS011;1913;50.660;7.834;2022-08-19T06:30:52;35.37;;;28.10;;
3795;SDS011;1913;50.660;7.834;2022-08-19T06:33:17;43.60;;;33.80;;
3795;SDS011;1913;50.660;7.834;2022-08-19T06:35:43;55.07;;;36.80;;
3795;SDS011;1913;50.660;7.834;2022-08-19T06:38:08;49.50;;;38.43;;
3795;SDS011;1913;50.660;7.834;2022-08-19T06:40:34;48.17;;;36.50;;
3795;SDS011;1913;50.660;7.834;2022-08-19T06:43:00;54.40;;;37.07;;
3795;SDS011;1913;50.660;7.834;2022-08-19T06:45:27;53.53;;;38.73;;
3795;SDS011;1913;50.660;7.834;2022-08-19T06:47:53;58.77;;;40.83;;
3795;SDS011;1913;50.660;7.834;2022-08-19T06:50:21;54.00;;;38.07;;
3795;SDS011;1913;50.660;7.834;2022-08-19T06:52:48;48.13;;;36.10;;
3795;SDS011;1913;50.660;7.834;2022-08-19T06:55:14;51.60;;;39.70;;
3795;SDS011;1913;50.660;7.834;2022-08-19T06:57:40;46.20;;;35.50;;
3795;SDS011;1913;50.660;7.834;2022-08-19T07:00:07;43.70;;;34.10;;
3795;SDS011;1913;50.660;7.834;2022-08-19T07:02:38;50.80;;;36.30;;
3795;SDS011;1913;50.660;7.834;2022-08-19T07:05:03;45.33;;;35.90;;
3795;SDS011;1913;50.660;7.834;2022-08-19T07:07:30;45.33;;;35.50;;
3795;SDS011;1913;50.660;7.834;2022-08-19T07:09:56;46.90;;;36.10;;
3795;SDS011;1913;50.660;7.834;2022-08-19T07:12:21;44.83;;;33.67;;
3795;SDS011;1913;50.660;7.834;2022-08-19T07:14:47;47.20;;;34.67;;
3795;SDS011;1913;50.660;7.834;2022-08-19T07:17:14;48.13;;;35.30;;
3795;SDS011;1913;50.660;7.834;2022-08-19T07:19:40;53.60;;;33.70;;
3795;SDS011;1913;50.660;7.834;2022-08-19T07:22:07;56.57;;;36.23;;
3795;SDS011;1913;50.660;7.834;2022-08-19T07:24:34;52.27;;;35.53;;
3795;SDS011;1913;50.660;7.834;2022-08-19T07:27:01;43.20;;;33.03;;
3795;SDS011;1913;50.660;7.834;2022-08-19T07:29:30;42.23;;;32.23;;
3795;SDS011;1913;50.660;7.834;2022-08-19T07:31:58;39.80;;;30.03;;
3795;SDS011;1913;50.660;7.834;2022-08-19T07:34:25;40.93;;;33.80;;
3795;SDS011;1913;50.660;7.834;2022-08-19T07:36:52;37.13;;;31.40;;
3795;SDS011;1913;50.660;7.834;2022-08-19T07:39:21;44.27;;;33.60;;
3795;SDS011;1913;50.660;7.834;2022-08-19T07:41:48;39.73;;;31.47;;
3795;SDS011;1913;50.660;7.834;2022-08-19T07:44:15;39.67;;;31.13;;
3795;SDS011;1913;50.660;7.834;2022-08-19T07:46:42;41.23;;;30.77;;
3795;SDS011;1913;50.660;7.834;2022-08-19T07:49:10;36.70;;;29.27;;
3795;SDS011;1913;50.660;7.834;2022-08-19T07:51:51;42.33;;;28.47;;
3795;SDS011;1913;50.660;7.834;2022-08-19T07:54:19;39.73;;;32.20;;
3795;SDS011;1913;50.660;7.834;2022-08-19T07:56:46;36.40;;;30.00;;
3795;SDS011;1913;50.660;7.834;2022-08-19T07:59:12;42.67;;;30.10;;
3795;SDS011;1913;50.660;7.834;2022-08-19T08:01:38;41.43;;;29.90;;
3795;SDS011;1913;50.660;7.834;2022-08-19T08:04:05;37.77;;;29.60;;
3795;SDS011;1913;50.660;7.834;2022-08-19T08:06:51;43.33;;;31.30;;
3795;SDS011;1913;50.660;7.834;2022-08-19T08:09:36;37.20;;;29.77;;
3795;SDS011;1913;50.660;7.834;2022-08-19T08:12:05;35.00;;;30.37;;
3795;SDS011;1913;50.660;7.834;2022-08-19T08:14:46;32.20;;;26.30;;
3795;SDS011;1913;50.660;7.834;2022-08-19T08:17:15;34.87;;;30.30;;
3795;SDS011;1913;50.660;7.834;2022-08-19T08:19:42;34.13;;;27.77;;
3795;SDS011;1913;50.660;7.834;2022-08-19T08:22:09;34.00;;;28.00;;
3795;SDS011;1913;50.660;7.834;2022-08-19T08:24:55;30.60;;;25.80;;
3795;SDS011;1913;50.660;7.834;2022-08-19T08:27:23;30.03;;;26.63;;
3795;SDS011;1913;50.660;7.834;2022-08-19T08:29:49;30.77;;;26.10;;
3795;SDS011;1913;50.660;7.834;2022-08-19T08:32:14;31.50;;;27.30;;
3795;SDS011;1913;50.660;7.834;2022-08-19T08:34:40;33.37;;;28.93;;
3795;SDS011;1913;50.660;7.834;2022-08-19T08:37:06;33.67;;;27.20;;
3795;SDS011;1913;50.660;7.834;2022-08-19T08:39:31;31.47;;;27.30;;
3795;SDS011;1913;50.660;7.834;2022-08-19T08:42:05;29.50;;;25.20;;
3795;SDS011;1913;50.660;7.834;2022-08-19T08:44:47;25.57;;;22.97;;
3795;SDS011;1913;50.660;7.834;2022-08-19T08:47:20;30.87;;;24.87;;
3795;SDS011;1913;50.660;7.834;2022-08-19T08:49:50;25.97;;;22.83;;
3795;SDS011;1913;50.660;7.834;2022-08-19T08:54:59;23.80;;;19.50;;
3795;SDS011;1913;50.660;7.834;2022-08-19T09:00:00;23.87;;;19.97;;
3795;SDS011;1913;50.660;7.834;2022-08-19T09:02:30;20.60;;;17.73;;
3795;SDS011;1913;50.660;7.834;2022-08-19T09:04:56;19.90;;;16.97;;
3795;SDS011;1913;50.660;7.834;2022-08-19T09:10:28;17.20;;;13.80;;
3795;SDS011;1913;50.660;7.834;2022-08-19T09:15:34;22.03;;;14.10;;
3795;SDS011;1913;50.660;7.834;2022-08-19T09:18:11;13.53;;;10.80;;
3795;SDS011;1913;50.660;7.834;2022-08-19T09:20:37;11.80;;;10.60;;
3795;SDS011;1913;50.660;7.834;2022-08-19T09:23:02;9.87;;;8.87;;
3795;SDS011;1913;50.660;7.834;2022-08-19T09:25:28;9.87;;;8.90;;
3795;SDS011;1913;50.660;7.834;2022-08-19T09:27:55;10.20;;;9.10;;
3795;SDS011;1913;50.660;7.834;2022-08-19T09:30:26;12.27;;;6.77;;
3795;SDS011;1913;50.660;7.834;2022-08-19T09:32:53;7.43;;;6.40;;
3795;SDS011;1913;50.660;7.834;2022-08-19T09:35:24;12.03;;;9.43;;
3795;SDS011;1913;50.660;7.834;2022-08-19T09:37:53;9.20;;;8.30;;
3795;SDS011;1913;50.660;7.834;2022-08-19T09:40:20;8.40;;;7.07;;
3795;SDS011;1913;50.660;7.834;2022-08-19T09:42:46;11.33;;;8.30;;
3795;SDS011;1913;50.660;7.834;2022-08-19T09:45:13;13.03;;;9.00;;
3795;SDS011;1913;50.660;7.834;2022-08-19T09:47:40;14.73;;;10.13;;
3795;SDS011;1913;50.660;7.834;2022-08-19T09:50:06;12.33;;;10.73;;
3795;SDS011;1913;50.660;7.834;2022-08-19T09:52:33;9.30;;;8.13;;
3795;SDS011;1913;50.660;7.834;2022-08-19T09:54:59;11.03;;;8.77;;
3795;SDS011;1913;50.660;7.834;2022-08-19T09:57:25;16.33;;;9.37;;
3795;SDS011;1913;50.660;7.834;2022-08-19T09:59:50;16.83;;;8.10;;
3795;SDS011;1913;50.660;7.834;2022-08-19T10:02:16;11.97;;;9.40;;
3795;SDS011;1913;50.660;7.834;2022-08-19T10:04:41;10.47;;;8.97;;
3795;SDS011;1913;50.660;7.834;2022-08-19T10:07:25;12.97;;;10.33;;
3795;SDS011;1913;50.660;7.834;2022-08-19T10:09:51;9.27;;;8.43;;
3795;SDS011;1913;50.660;7.834;2022-08-19T10:12:16;8.27;;;6.83;;
3795;SDS011;1913;50.660;7.834;2022-08-19T10:14:41;10.57;;;7.77;;
3795;SDS011;1913;50.660;7.834;2022-08-19T10:17:07;11.10;;;9.47;;
3795;SDS011;1913;50.660;7.834;2022-08-19T10:19:33;9.03;;;8.13;;
3795;SDS011;1913;50.660;7.834;2022-08-19T10:22:04;9.57;;;7.90;;
3795;SDS011;1913;50.660;7.834;2022-08-19T10:24:32;8.87;;;7.97;;
3795;SDS011;1913;50.660;7.834;2022-08-19T10:26:58;8.83;;;7.93;;
3795;SDS011;1913;50.660;7.834;2022-08-19T10:29:24;10.40;;;8.87;;
3795;SDS011;1913;50.660;7.834;2022-08-19T10:31:50;12.00;;;8.37;;
3795;SDS011;1913;50.660;7.834;2022-08-19T10:34:15;9.70;;;8.87;;
3795;SDS011;1913;50.660;7.834;2022-08-19T10:36:41;9.70;;;7.40;;
3795;SDS011;1913;50.660;7.834;2022-08-19T10:39:07;10.87;;;9.77;;
3795;SDS011;1913;50.660;7.834;2022-08-19T10:41:35;11.00;;;9.00;;
3795;SDS011;1913;50.660;7.834;2022-08-19T10:44:04;9.03;;;8.23;;
3795;SDS011;1913;50.660;7.834;2022-08-19T10:46:31;11.60;;;9.33;;
3795;SDS011;1913;50.660;7.834;2022-08-19T10:48:59;8.40;;;7.60;;
3795;SDS011;1913;50.660;7.834;2022-08-19T10:51:28;13.30;;;7.90;;
3795;SDS011;1913;50.660;7.834;2022-08-19T10:54:13;7.63;;;6.93;;
3795;SDS011;1913;50.660;7.834;2022-08-19T10:56:38;10.53;;;7.13;;
3795;SDS011;1913;50.660;7.834;2022-08-19T10:59:17;7.70;;;7.00;;
3795;SDS011;1913;50.660;7.834;2022-08-19T11:01:47;7.77;;;7.03;;
3795;SDS011;1913;50.660;7.834;2022-08-19T11:04:14;9.03;;;7.80;;
3795;SDS011;1913;50.660;7.834;2022-08-19T11:06:46;8.77;;;7.87;;
3795;SDS011;1913;50.660;7.834;2022-08-19T11:09:18;8.10;;;7.40;;
3795;SDS011;1913;50.660;7.834;2022-08-19T11:11:51;10.40;;;7.10;;
3795;SDS011;1913;50.660;7.834;2022-08-19T11:14:18;8.03;;;7.30;;
3795;SDS011;1913;50.660;7.834;2022-08-19T11:16:46;5.90;;;5.33;;
3795;SDS011;1913;50.660;7.834;2022-08-19T11:19:13;9.17;;;6.63;;
3795;SDS011;1913;50.660;7.834;2022-08-19T11:21:42;7.00;;;6.40;;
3795;SDS011;1913;50.660;7.834;2022-08-19T11:24:19;6.67;;;5.47;;
3795;SDS011;1913;50.660;7.834;2022-08-19T11:26:47;9.17;;;6.80;;
3795;SDS011;1913;50.660;7.834;2022-08-19T11:29:15;5.60;;;5.10;;
3795;SDS011;1913;50.660;7.834;2022-08-19T11:31:43;5.67;;;5.17;;
3795;SDS011;1913;50.660;7.834;2022-08-19T11:34:12;8.47;;;7.10;;
3795;SDS011;1913;50.660;7.834;2022-08-19T11:36:42;6.60;;;6.00;;
3795;SDS011;1913;50.660;7.834;2022-08-19T11:39:09;6.67;;;6.07;;
3795;SDS011;1913;50.660;7.834;2022-08-19T11:41:36;5.87;;;5.27;;
3795;SDS011;1913;50.660;7.834;2022-08-19T11:44:02;7.53;;;6.50;;
3795;SDS011;1913;50.660;7.834;2022-08-19T11:46:29;6.73;;;6.13;;
3795;SDS011;1913;50.660;7.834;2022-08-19T11:48:56;7.03;;;5.90;;
3795;SDS011;1913;50.660;7.834;2022-08-19T11:51:23;7.13;;;6.43;;
3795;SDS011;1913;50.660;7.834;2022-08-19T11:53:50;6.80;;;6.20;;
3795;SDS011;1913;50.660;7.834;2022-08-19T11:56:16;7.00;;;4.90;;
3795;SDS011;1913;50.660;7.834;2022-08-19T11:58:43;5.30;;;4.80;;
3795;SDS011;1913;50.660;7.834;2022-08-19T12:01:09;6.20;;;5.40;;
3795;SDS011;1913;50.660;7.834;2022-08-19T12:03:36;6.43;;;5.83;;
3795;SDS011;1913;50.660;7.834;2022-08-19T12:06:13;6.47;;;5.87;;
3795;SDS011;1913;50.660;7.834;2022-08-19T12:08:44;6.57;;;5.43;;
3795;SDS011;1913;50.660;7.834;2022-08-19T12:11:10;9.13;;;5.83;;
3795;SDS011;1913;50.660;7.834;2022-08-19T12:13:37;6.70;;;6.10;;
3795;SDS011;1913;50.660;7.834;2022-08-19T12:16:37;6.47;;;5.80;;
3795;SDS011;1913;50.660;7.834;2022-08-19T12:18:56;6.57;;;6.00;;
3795;SDS011;1913;50.660;7.834;2022-08-19T12:21:24;6.30;;;5.03;;
3795;SDS011;1913;50.660;7.834;2022-08-19T12:23:53;5.70;;;4.57;;
3795;SDS011;1913;50.660;7.834;2022-08-19T12:26:21;5.10;;;4.60;;
3795;SDS011;1913;50.660;7.834;2022-08-19T12:28:47;6.43;;;5.83;;
3795;SDS011;1913;50.660;7.834;2022-08-19T12:31:13;9.60;;;6.40;;
3795;SDS011;1913;50.660;7.834;2022-08-19T12:33:40;8.37;;;5.30;;
3795;SDS011;1913;50.660;7.834;2022-08-19T12:36:07;9.27;;;5.30;;
3795;SDS011;1913;50.660;7.834;2022-08-19T12:38:38;8.90;;;6.20;;
3795;SDS011;1913;50.660;7.834;2022-08-19T12:41:04;8.17;;;4.73;;
3795;SDS011;1913;50.660;7.834;2022-08-19T12:43:31;4.80;;;4.40;;
3795;SDS011;1913;50.660;7.834;2022-08-19T12:45:57;5.07;;;4.67;;
3795;SDS011;1913;50.660;7.834;2022-08-19T12:48:22;6.07;;;5.57;;
3795;SDS011;1913;50.660;7.834;2022-08-19T12:50:48;6.67;;;5.97;;
3795;SDS011;1913;50.660;7.834;2022-08-19T12:53:14;7.50;;;6.10;;
3795;SDS011;1913;50.660;7.834;2022-08-19T12:55:40;6.50;;;5.50;;
3795;SDS011;1913;50.660;7.834;2022-08-19T12:58:06;9.73;;;6.00;;
3795;SDS011;1913;50.660;7.834;2022-08-19T13:00:31;6.70;;;5.53;;
3795;SDS011;1913;50.660;7.834;2022-08-19T13:02:58;7.50;;;5.00;;
3795;SDS011;1913;50.660;7.834;2022-08-19T13:05:25;4.90;;;4.50;;
3795;SDS011;1913;50.660;7.834;2022-08-19T13:07:53;5.30;;;4.60;;
3795;SDS011;1913;50.660;7.834;2022-08-19T13:10:24;8.40;;;6.40;;
3795;SDS011;1913;50.660;7.834;2022-08-19T13:12:52;11.90;;;7.97;;
3795;SDS011;1913;50.660;7.834;2022-08-19T13:15:19;9.90;;;7.77;;
3795;SDS011;1913;50.660;7.834;2022-08-19T13:17:46;7.33;;;6.43;;
3795;SDS011;1913;50.660;7.834;2022-08-19T13:20:14;9.80;;;6.33;;
3795;SDS011;1913;50.660;7.834;2022-08-19T13:22:40;12.93;;;6.97;;
3795;SDS011;1913;50.660;7.834;2022-08-19T13:25:07;8.30;;;6.53;;
3795;SDS011;1913;50.660;7.834;2022-08-19T13:27:33;8.97;;;7.93;;
3795;SDS011;1913;50.660;7.834;2022-08-19T13:29:59;8.80;;;7.70;;
3795;SDS011;1913;50.660;7.834;2022-08-19T13:32:44;12.00;;;8.73;;
3795;SDS011;1913;50.660;7.834;2022-08-19T13:35:28;8.90;;;8.03;;
3795;SDS011;1913;50.660;7.834;2022-08-19T13:37:54;7.73;;;6.60;;
3795;SDS011;1913;50.660;7.834;2022-08-19T13:40:20;8.23;;;7.43;;
3795;SDS011;1913;50.660;7.834;2022-08-19T13:42:49;10.40;;;7.50;;
3795;SDS011;1913;50.660;7.834;2022-08-19T13:45:18;8.33;;;7.53;;
3795;SDS011;1913;50.660;7.834;2022-08-19T13:47:49;7.57;;;5.87;;
3795;SDS011;1913;50.660;7.834;2022-08-19T13:50:17;9.30;;;6.83;;
3795;SDS011;1913;50.660;7.834;2022-08-19T13:52:45;10.17;;;6.13;;
3795;SDS011;1913;50.660;7.834;2022-08-19T13:55:12;5.83;;;5.20;;
3795;SDS011;1913;50.660;7.834;2022-08-19T13:57:38;6.77;;;6.13;;
3795;SDS011;1913;50.660;7.834;2022-08-19T14:00:04;6.60;;;5.90;;
3795;SDS011;1913;50.660;7.834;2022-08-19T14:02:34;5.70;;;5.10;;
3795;SDS011;1913;50.660;7.834;2022-08-19T14:04:59;6.50;;;5.80;;
3795;SDS011;1913;50.660;7.834;2022-08-19T14:07:25;6.13;;;5.53;;
3795;SDS011;1913;50.660;7.834;2022-08-19T14:09:50;10.10;;;5.60;;
3795;SDS011;1913;50.660;7.834;2022-08-19T14:12:22;8.40;;;7.33;;
3795;SDS011;1913;50.660;7.834;2022-08-19T14:14:48;9.13;;;8.33;;
3795;SDS011;1913;50.660;7.834;2022-08-19T14:17:13;7.87;;;7.07;;
3795;SDS011;1913;50.660;7.834;2022-08-19T14:19:39;7.10;;;6.20;;
3795;SDS011;1913;50.660;7.834;2022-08-19T14:22:04;7.80;;;6.80;;
3795;SDS011;1913;50.660;7.834;2022-08-19T14:24:30;11.13;;;8.53;;
3795;SDS011;1913;50.660;7.834;2022-08-19T14:26:57;10.93;;;9.90;;
3795;SDS011;1913;50.660;7.834;2022-08-19T14:29:23;11.13;;;10.07;;
3795;SDS011;1913;50.660;7.834;2022-08-19T14:31:49;10.27;;;8.80;;
3795;SDS011;1913;50.660;7.834;2022-08-19T14:34:15;14.00;;;9.70;;
3795;SDS011;1913;50.660;7.834;2022-08-19T14:36:40;10.67;;;9.17;;
3795;SDS011;1913;50.660;7.834;2022-08-19T14:39:07;13.10;;;9.50;;
3795;SDS011;1913;50.660;7.834;2022-08-19T14:41:34;10.73;;;9.73;;
3795;SDS011;1913;50.660;7.834;2022-08-19T14:44:01;12.73;;;9.87;;
3795;SDS011;1913;50.660;7.834;2022-08-19T14:46:27;11.77;;;9.97;;
3795;SDS011;1913;50.660;7.834;2022-08-19T14:48:53;13.80;;;10.40;;
3795;SDS011;1913;50.660;7.834;2022-08-19T14:51:20;9.70;;;8.70;;
3795;SDS011;1913;50.660;7.834;2022-08-19T14:53:47;10.93;;;9.73;;
3795;SDS011;1913;50.660;7.834;2022-08-19T14:56:14;13.73;;;9.57;;
3795;SDS011;1913;50.660;7.834;2022-08-19T14:58:42;10.43;;;8.97;;
3795;SDS011;1913;50.660;7.834;2022-08-19T15:01:08;14.53;;;8.50;;
3795;SDS011;1913;50.660;7.834;2022-08-19T15:03:35;10.00;;;9.00;;
3795;SDS011;1913;50.660;7.834;2022-08-19T15:06:02;13.80;;;8.40;;
3795;SDS011;1913;50.660;7.834;2022-08-19T15:08:30;9.00;;;8.20;;
3795;SDS011;1913;50.660;7.834;2022-08-19T15:10:57;8.43;;;7.70;;
3795;SDS011;1913;50.660;7.834;2022-08-19T15:13:24;11.20;;;7.40;;